Time;durP1;ratioP1;P1;durP2;ratioP2;P2;SDS_P1;SDS_P2;PMS_P1;PMS_P2;Temp;Humidity;BMP_temperature;BMP_pressure;BME280_temperature;BME280_humidity;BME280_pressure;Samples;Min_cycle;Max_cycle;Signal;HPM_P1;HPM_P2
2021/07/07 00:00:00;;;;;;;1.48;0.60;;;;;;;;;;5090185;28;20408;-56
2021/07/07 00:02:27;;;;;;;0.70;0.70;;;;;;;;;;5088865;28;20043;-55
2021/07/07 00:04:54;;;;;;;0.70;0.70;;;;;;;;;;5088429;28;20476;-55
2021/07/07 00:07:21;;;;;;;2.67;1.15;;;;;;;;;;5088930;28;20050;-56
2021/07/07 00:09:48;;;;;;;1.50;0.90;;;;;;;;;;5088172;28;20043;-56
2021/07/07 00:12:14;;;;;;;0.60;0.60;;;;;;;;;;5090063;28;20075;-55
2021/07/07 00:14:41;;;;;;;0.90;0.70;;;;;;;;;;5089325;28;20052;-55
2021/07/07 00:17:08;;;;;;;0.70;0.70;;;;;;;;;;5088026;28;20036;-55
2021/07/07 00:19:35;;;;;;;0.65;0.60;;;;;;;;;;5089297;28;20036;-56
2021/07/07 00:22:03;;;;;;;0.70;0.70;;;;;;;;;;5088231;28;20093;-56
2021/07/07 00:24:30;;;;;;;3.47;0.80;;;;;;;;;;5089744;28;20085;-56
2021/07/07 00:26:56;;;;;;;1.30;0.70;;;;;;;;;;5089516;28;20048;-56
2021/07/07 00:29:23;;;;;;;1.45;0.63;;;;;;;;;;5088492;28;20518;-55
2021/07/07 00:31:50;;;;;;;0.70;0.70;;;;;;;;;;5096872;28;20531;-55
2021/07/07 00:34:16;;;;;;;0.63;0.63;;;;;;;;;;5088637;28;20044;-56
2021/07/07 00:36:43;;;;;;;0.70;0.70;;;;;;;;;;5088514;28;20683;-56
2021/07/07 00:39:10;;;;;;;1.70;0.70;;;;;;;;;;5089345;28;20056;-55
2021/07/07 00:41:36;;;;;;;1.40;0.65;;;;;;;;;;5095008;28;20040;-55
2021/07/07 00:44:03;;;;;;;1.80;0.70;;;;;;;;;;5095130;28;20161;-56
2021/07/07 00:46:30;;;;;;;1.65;0.70;;;;;;;;;;5094384;28;20075;-56
2021/07/07 00:48:57;;;;;;;1.20;0.63;;;;;;;;;;5089992;28;20075;-55
2021/07/07 00:51:24;;;;;;;0.70;0.70;;;;;;;;;;5080098;28;20044;-56
2021/07/07 00:53:53;;;;;;;0.80;0.70;;;;;;;;;;5087369;28;20515;-56
2021/07/07 00:56:21;;;;;;;0.70;0.70;;;;;;;;;;5082019;28;20122;-55
2021/07/07 00:58:52;;;;;;;0.60;0.60;;;;;;;;;;5090892;28;20511;-56
2021/07/07 01:01:18;;;;;;;3.33;0.60;;;;;;;;;;5092256;28;20036;-56
2021/07/07 01:03:45;;;;;;;0.70;0.70;;;;;;;;;;5092325;28;20120;-56
2021/07/07 01:06:12;;;;;;;2.75;0.75;;;;;;;;;;5091771;28;20550;-56
2021/07/07 01:08:42;;;;;;;0.70;0.70;;;;;;;;;;5094196;28;20036;-56
2021/07/07 01:11:08;;;;;;;0.80;0.80;;;;;;;;;;5091211;28;20048;-56
2021/07/07 01:13:37;;;;;;;0.70;0.70;;;;;;;;;;5091634;28;20040;-56
2021/07/07 01:16:04;;;;;;;1.60;0.70;;;;;;;;;;5093868;28;20040;-57
2021/07/07 01:18:31;;;;;;;0.80;0.80;;;;;;;;;;5092303;28;20089;-56
2021/07/07 01:20:58;;;;;;;1.27;1.17;;;;;;;;;;5093391;28;20075;-55
2021/07/07 01:23:25;;;;;;;0.95;0.80;;;;;;;;;;5091326;28;20063;-56
2021/07/07 01:25:52;;;;;;;0.75;0.75;;;;;;;;;;5091541;28;20028;-54
2021/07/07 01:28:19;;;;;;;0.75;0.65;;;;;;;;;;5087147;28;20670;-56
2021/07/07 01:30:46;;;;;;;0.70;0.70;;;;;;;;;;5093201;28;20532;-56
2021/07/07 01:33:13;;;;;;;0.80;0.80;;;;;;;;;;5091504;28;20052;-56
2021/07/07 01:35:40;;;;;;;0.70;0.70;;;;;;;;;;5092336;28;20496;-56
2021/07/07 01:38:07;;;;;;;1.50;1.50;;;;;;;;;;5088372;28;20068;-56
2021/07/07 01:40:33;;;;;;;0.88;0.70;;;;;;;;;;5096905;28;20040;-56
2021/07/07 01:43:00;;;;;;;1.40;0.70;;;;;;;;;;5091254;28;20550;-55
2021/07/07 01:45:28;;;;;;;1.52;0.70;;;;;;;;;;5089221;28;20468;-56
2021/07/07 01:47:55;;;;;;;2.97;0.70;;;;;;;;;;5090503;28;20041;-55
2021/07/07 01:50:23;;;;;;;0.70;0.70;;;;;;;;;;5090555;28;20060;-56
2021/07/07 01:52:50;;;;;;;0.93;0.93;;;;;;;;;;5090939;28;20046;-56
2021/07/07 01:55:17;;;;;;;0.70;0.70;;;;;;;;;;5087704;28;20036;-56
2021/07/07 01:57:45;;;;;;;0.70;0.70;;;;;;;;;;5084186;28;20071;-56
2021/07/07 02:00:15;;;;;;;0.70;0.70;;;;;;;;;;5092828;28;20048;-56
2021/07/07 02:02:43;;;;;;;1.00;0.80;;;;;;;;;;5089963;28;20043;-56
2021/07/07 02:05:10;;;;;;;0.70;0.70;;;;;;;;;;5091395;28;20048;-55
2021/07/07 02:07:36;;;;;;;1.38;0.70;;;;;;;;;;5084651;28;20527;-56
2021/07/07 02:10:05;;;;;;;1.60;0.70;;;;;;;;;;5090582;28;20672;-55
2021/07/07 02:12:33;;;;;;;0.70;0.70;;;;;;;;;;5098392;28;20040;-56
2021/07/07 02:15:00;;;;;;;1.35;0.80;;;;;;;;;;5089811;28;20050;-55
2021/07/07 02:17:27;;;;;;;0.70;0.70;;;;;;;;;;5089979;28;20036;-56
2021/07/07 02:19:54;;;;;;;0.80;0.70;;;;;;;;;;5086808;28;20511;-56
2021/07/07 02:22:21;;;;;;;0.70;0.70;;;;;;;;;;5080687;28;20078;-56
2021/07/07 02:24:47;;;;;;;0.88;0.88;;;;;;;;;;5080810;28;20040;-56
2021/07/07 02:27:14;;;;;;;0.70;0.70;;;;;;;;;;5088560;28;20028;-56
2021/07/07 02:29:41;;;;;;;0.70;0.70;;;;;;;;;;5089429;28;20418;-55
2021/07/07 02:32:08;;;;;;;0.73;0.73;;;;;;;;;;5098865;28;20119;-56
2021/07/07 02:34:34;;;;;;;1.40;0.70;;;;;;;;;;5047148;28;1141616;-55
2021/07/07 02:37:01;;;;;;;0.70;0.70;;;;;;;;;;5091293;28;20446;-56
2021/07/07 02:39:28;;;;;;;0.70;0.70;;;;;;;;;;5091015;28;20093;-55
2021/07/07 02:41:55;;;;;;;0.70;0.70;;;;;;;;;;5094387;28;20510;-56
2021/07/07 02:44:21;;;;;;;1.92;0.75;;;;;;;;;;5083966;28;20036;-56
2021/07/07 02:46:48;;;;;;;0.80;0.80;;;;;;;;;;5086355;28;20032;-56
2021/07/07 02:49:15;;;;;;;1.13;0.80;;;;;;;;;;5092362;28;20123;-56
2021/07/07 02:51:42;;;;;;;0.73;0.70;;;;;;;;;;5091580;28;20492;-56
2021/07/07 02:54:09;;;;;;;2.97;0.70;;;;;;;;;;5091272;28;20131;-56
2021/07/07 02:56:36;;;;;;;0.73;0.73;;;;;;;;;;5091400;28;20036;-55
2021/07/07 02:59:02;;;;;;;0.77;0.77;;;;;;;;;;5089490;28;20088;-56
2021/07/07 03:01:30;;;;;;;0.70;0.70;;;;;;;;;;5091097;28;20060;-56
2021/07/07 03:03:56;;;;;;;0.80;0.80;;;;;;;;;;5085937;28;20033;-55
2021/07/07 03:06:23;;;;;;;1.27;0.77;;;;;;;;;;5088015;28;20036;-56
2021/07/07 03:08:50;;;;;;;0.70;0.70;;;;;;;;;;5091883;28;20457;-55
2021/07/07 03:11:17;;;;;;;0.80;0.80;;;;;;;;;;5089956;28;20144;-56
2021/07/07 03:13:43;;;;;;;1.13;1.00;;;;;;;;;;5108848;28;20476;-56
2021/07/07 03:16:10;;;;;;;0.70;0.70;;;;;;;;;;5088432;28;20155;-55
2021/07/07 03:18:37;;;;;;;0.70;0.70;;;;;;;;;;5081066;28;20408;-56
2021/07/07 03:21:04;;;;;;;0.80;0.80;;;;;;;;;;5090553;28;20040;-55
2021/07/07 03:23:30;;;;;;;0.70;0.70;;;;;;;;;;5088207;28;20402;-56
2021/07/07 03:25:57;;;;;;;0.70;0.70;;;;;;;;;;5090821;28;20035;-56
2021/07/07 03:28:24;;;;;;;1.35;1.20;;;;;;;;;;5088934;28;20070;-56
2021/07/07 03:30:51;;;;;;;0.90;0.90;;;;;;;;;;5089056;28;20483;-55
2021/07/07 03:33:18;;;;;;;1.58;0.80;;;;;;;;;;5082832;28;20040;-55
2021/07/07 03:35:45;;;;;;;2.15;0.80;;;;;;;;;;5088158;28;20478;-56
2021/07/07 03:38:13;;;;;;;0.82;0.70;;;;;;;;;;5089667;28;20496;-55
2021/07/07 03:40:40;;;;;;;1.05;0.70;;;;;;;;;;5089867;28;20078;-56
2021/07/07 03:43:07;;;;;;;1.38;0.80;;;;;;;;;;5089926;28;20626;-56
2021/07/07 03:45:34;;;;;;;1.75;0.70;;;;;;;;;;5076688;28;20075;-56
2021/07/07 03:48:01;;;;;;;2.15;0.70;;;;;;;;;;5087954;28;20032;-56
2021/07/07 03:50:28;;;;;;;0.70;0.70;;;;;;;;;;5088082;28;20074;-55
2021/07/07 03:52:59;;;;;;;1.42;0.70;;;;;;;;;;5083314;28;20071;-56
2021/07/07 03:55:26;;;;;;;1.10;0.82;;;;;;;;;;5079852;28;20068;-56
2021/07/07 03:57:53;;;;;;;0.85;0.70;;;;;;;;;;5090390;28;20047;-55
2021/07/07 04:00:23;;;;;;;0.70;0.70;;;;;;;;;;5088022;28;20070;-55
2021/07/07 04:02:50;;;;;;;0.70;0.70;;;;;;;;;;5087753;28;20037;-55
2021/07/07 04:05:17;;;;;;;1.40;0.80;;;;;;;;;;5097040;28;20035;-55
2021/07/07 04:07:44;;;;;;;1.05;1.00;;;;;;;;;;5089861;28;20490;-55
2021/07/07 04:10:13;;;;;;;0.88;0.80;;;;;;;;;;5089765;28;20476;-55
2021/07/07 04:12:42;;;;;;;1.00;0.80;;;;;;;;;;5085959;28;20036;-56
2021/07/07 04:15:10;;;;;;;3.13;0.80;;;;;;;;;;5087059;28;20032;-56
2021/07/07 04:17:36;;;;;;;0.80;0.80;;;;;;;;;;5091053;28;20079;-56
2021/07/07 04:20:09;;;;;;;1.25;0.80;;;;;;;;;;5088810;28;20036;-55
2021/07/07 04:22:36;;;;;;;2.38;1.55;;;;;;;;;;5089120;28;20036;-55
2021/07/07 04:25:04;;;;;;;0.80;0.80;;;;;;;;;;5088612;28;20539;-56
2021/07/07 04:27:31;;;;;;;1.55;0.70;;;;;;;;;;5088140;28;20431;-55
2021/07/07 04:29:58;;;;;;;1.05;0.80;;;;;;;;;;5091003;28;20479;-55
2021/07/07 04:32:25;;;;;;;1.10;0.80;;;;;;;;;;5089082;28;20075;-56
2021/07/07 04:34:53;;;;;;;3.15;1.13;;;;;;;;;;5081721;28;20088;-56
2021/07/07 04:37:19;;;;;;;0.80;0.80;;;;;;;;;;5093344;28;20036;-56
2021/07/07 04:39:46;;;;;;;0.80;0.80;;;;;;;;;;5089498;28;20431;-56
2021/07/07 04:42:13;;;;;;;3.60;0.80;;;;;;;;;;5067409;28;20041;-56
2021/07/07 04:44:40;;;;;;;0.80;0.80;;;;;;;;;;5085161;28;20028;-56
2021/07/07 04:47:06;;;;;;;0.70;0.70;;;;;;;;;;5064510;28;20050;-55
2021/07/07 04:49:34;;;;;;;3.05;0.80;;;;;;;;;;5089219;28;20079;-55
2021/07/07 04:52:01;;;;;;;0.80;0.80;;;;;;;;;;5071446;28;20087;-56
2021/07/07 04:54:27;;;;;;;0.70;0.70;;;;;;;;;;5077051;28;20353;-56
2021/07/07 04:56:54;;;;;;;1.75;0.80;;;;;;;;;;5071692;28;20470;-56
2021/07/07 04:59:22;;;;;;;0.80;0.80;;;;;;;;;;5087682;28;20090;-56
2021/07/07 05:01:49;;;;;;;1.42;0.80;;;;;;;;;;5090428;28;20040;-56
2021/07/07 05:04:15;;;;;;;1.00;1.00;;;;;;;;;;5087274;28;20032;-56
2021/07/07 05:06:42;;;;;;;0.90;0.90;;;;;;;;;;5088747;28;20105;-56
2021/07/07 05:09:09;;;;;;;1.95;0.82;;;;;;;;;;5088210;28;20044;-56
2021/07/07 05:11:36;;;;;;;1.40;1.00;;;;;;;;;;5088894;28;20064;-56
2021/07/07 05:14:03;;;;;;;0.90;0.90;;;;;;;;;;5090464;28;20090;-56
2021/07/07 05:16:29;;;;;;;1.80;0.90;;;;;;;;;;5088440;28;20071;-56
2021/07/07 05:18:56;;;;;;;0.80;0.80;;;;;;;;;;5100301;28;20617;-56
2021/07/07 05:21:23;;;;;;;0.80;0.80;;;;;;;;;;5088230;28;20032;-56
2021/07/07 05:23:50;;;;;;;0.90;0.90;;;;;;;;;;5089568;28;20029;-57
2021/07/07 05:26:17;;;;;;;0.90;0.90;;;;;;;;;;5090383;28;20071;-59
2021/07/07 05:28:43;;;;;;;5.90;1.23;;;;;;;;;;5092780;28;20097;-59
2021/07/07 05:31:10;;;;;;;1.77;0.90;;;;;;;;;;5074310;28;20465;-58
2021/07/07 05:33:37;;;;;;;3.35;1.27;;;;;;;;;;5092623;28;20114;-58
2021/07/07 05:36:04;;;;;;;0.98;0.88;;;;;;;;;;5085278;28;20067;-59
2021/07/07 05:38:31;;;;;;;1.08;0.98;;;;;;;;;;5092702;28;20135;-58
2021/07/07 05:40:58;;;;;;;1.20;0.90;;;;;;;;;;5093610;28;20056;-59
2021/07/07 05:43:25;;;;;;;1.67;0.90;;;;;;;;;;5074360;28;20038;-58
2021/07/07 05:45:52;;;;;;;2.10;0.90;;;;;;;;;;5083969;28;20098;-59
2021/07/07 05:48:19;;;;;;;1.08;0.93;;;;;;;;;;5083385;28;20063;-58
2021/07/07 05:50:46;;;;;;;0.90;0.90;;;;;;;;;;5078255;28;20072;-58
2021/07/07 05:53:13;;;;;;;1.35;0.80;;;;;;;;;;5091075;28;20048;-58
2021/07/07 05:55:40;;;;;;;0.80;0.80;;;;;;;;;;5074207;28;20553;-59
2021/07/07 05:58:07;;;;;;;0.80;0.80;;;;;;;;;;5093339;28;20551;-59
2021/07/07 06:00:33;;;;;;;0.75;0.75;;;;;;;;;;5091314;28;20048;-58
2021/07/07 06:03:00;;;;;;;1.60;1.00;;;;;;;;;;5092777;28;20472;-59
2021/07/07 06:05:27;;;;;;;1.48;0.90;;;;;;;;;;5092770;28;20036;-58
2021/07/07 06:07:55;;;;;;;2.08;0.90;;;;;;;;;;5093943;28;20028;-58
2021/07/07 06:10:23;;;;;;;3.22;1.10;;;;;;;;;;5093803;28;20495;-58
2021/07/07 06:12:51;;;;;;;0.95;0.95;;;;;;;;;;5091513;28;20044;-58
2021/07/07 06:15:18;;;;;;;1.00;0.90;;;;;;;;;;5091565;28;20063;-58
2021/07/07 06:17:45;;;;;;;1.20;0.90;;;;;;;;;;5091310;28;20048;-58
2021/07/07 06:20:14;;;;;;;1.10;1.00;;;;;;;;;;5091017;28;20047;-58
2021/07/07 06:22:42;;;;;;;1.05;0.80;;;;;;;;;;5086439;28;20051;-59
2021/07/07 06:25:09;;;;;;;1.42;0.80;;;;;;;;;;5072639;28;20043;-57
2021/07/07 06:27:37;;;;;;;2.08;0.80;;;;;;;;;;5073603;28;20037;-58
2021/07/07 06:30:05;;;;;;;0.70;0.70;;;;;;;;;;5093566;28;20028;-58
2021/07/07 06:32:31;;;;;;;0.70;0.70;;;;;;;;;;5090908;28;20361;-58
2021/07/07 06:35:00;;;;;;;0.70;0.70;;;;;;;;;;5092595;28;20052;-58
2021/07/07 06:37:28;;;;;;;0.70;0.70;;;;;;;;;;5089589;28;20391;-57
2021/07/07 06:39:58;;;;;;;2.08;0.60;;;;;;;;;;5059568;28;20052;-58
2021/07/07 06:42:25;;;;;;;1.58;0.70;;;;;;;;;;5092323;28;20082;-59
2021/07/07 06:44:52;;;;;;;0.70;0.70;;;;;;;;;;5090557;28;20043;-58
2021/07/07 06:47:19;;;;;;;0.60;0.60;;;;;;;;;;5076467;28;20094;-58
2021/07/07 06:49:46;;;;;;;0.70;0.70;;;;;;;;;;5087409;28;21120;-58
2021/07/07 06:52:13;;;;;;;1.60;0.70;;;;;;;;;;5075557;28;20535;-58
2021/07/07 06:54:42;;;;;;;2.42;0.70;;;;;;;;;;5088347;28;20036;-58
2021/07/07 06:57:12;;;;;;;1.60;0.98;;;;;;;;;;5088820;28;20040;-58
2021/07/07 06:59:39;;;;;;;3.10;0.70;;;;;;;;;;5091206;28;20044;-58
2021/07/07 07:02:06;;;;;;;1.45;0.70;;;;;;;;;;5086168;28;20032;-59
2021/07/07 07:04:33;;;;;;;2.60;0.70;;;;;;;;;;5076613;28;20056;-59
2021/07/07 07:06:59;;;;;;;1.05;0.70;;;;;;;;;;5091427;28;20050;-59
2021/07/07 07:09:26;;;;;;;0.60;0.60;;;;;;;;;;5089812;28;20093;-58
2021/07/07 07:11:53;;;;;;;1.65;0.70;;;;;;;;;;5090933;28;20036;-59
2021/07/07 07:14:20;;;;;;;1.88;0.60;;;;;;;;;;5085457;28;20044;-59
2021/07/07 07:16:47;;;;;;;0.60;0.60;;;;;;;;;;5077638;28;20196;-59
2021/07/07 07:19:14;;;;;;;2.05;0.60;;;;;;;;;;5073544;28;20040;-59
2021/07/07 07:21:41;;;;;;;0.85;0.60;;;;;;;;;;5087595;28;20036;-59
2021/07/07 07:24:08;;;;;;;1.00;0.60;;;;;;;;;;5072066;28;20040;-59
2021/07/07 07:26:36;;;;;;;0.88;0.50;;;;;;;;;;5091175;28;20040;-59
2021/07/07 07:29:03;;;;;;;2.17;0.60;;;;;;;;;;5089950;28;20032;-59
2021/07/07 07:31:30;;;;;;;1.48;0.50;;;;;;;;;;5092012;28;20120;-59
2021/07/07 07:33:57;;;;;;;0.85;0.50;;;;;;;;;;5090875;28;20102;-59
2021/07/07 07:36:24;;;;;;;2.08;0.55;;;;;;;;;;5089277;28;20042;-59
2021/07/07 07:38:59;;;;;;;1.67;0.63;;;;;;;;;;5082944;28;20127;-59
2021/07/07 07:41:27;;;;;;;1.05;0.50;;;;;;;;;;5072568;28;20040;-59
2021/07/07 07:43:53;;;;;;;0.50;0.50;;;;;;;;;;5089766;28;20380;-59
2021/07/07 07:46:20;;;;;;;1.88;0.50;;;;;;;;;;5088881;28;20067;-59
2021/07/07 07:48:47;;;;;;;0.50;0.50;;;;;;;;;;5089202;28;20061;-59
2021/07/07 07:51:14;;;;;;;0.50;0.50;;;;;;;;;;5062950;28;20062;-59
2021/07/07 07:53:41;;;;;;;3.85;0.50;;;;;;;;;;5071334;28;20089;-59
2021/07/07 07:56:08;;;;;;;4.95;0.50;;;;;;;;;;5085029;28;20043;-59
2021/07/07 07:58:35;;;;;;;1.80;0.50;;;;;;;;;;5088864;28;20093;-59
2021/07/07 08:01:02;;;;;;;0.95;0.40;;;;;;;;;;5090328;28;20044;-59
2021/07/07 08:03:29;;;;;;;0.40;0.40;;;;;;;;;;5092189;28;20491;-59
2021/07/07 08:05:55;;;;;;;0.40;0.40;;;;;;;;;;5088793;28;20484;-59
2021/07/07 08:08:22;;;;;;;0.40;0.40;;;;;;;;;;5094958;28;20036;-59
2021/07/07 08:10:49;;;;;;;0.52;0.43;;;;;;;;;;5091386;28;20092;-59
2021/07/07 08:13:16;;;;;;;1.63;0.40;;;;;;;;;;5101143;28;20044;-59
2021/07/07 08:15:42;;;;;;;1.75;0.50;;;;;;;;;;5091430;28;20126;-59
2021/07/07 08:18:09;;;;;;;0.40;0.40;;;;;;;;;;5089857;28;20035;-59
2021/07/07 08:20:36;;;;;;;0.60;0.60;;;;;;;;;;5084990;28;20419;-59
2021/07/07 08:23:03;;;;;;;0.55;0.40;;;;;;;;;;5091244;28;20040;-59
2021/07/07 08:25:29;;;;;;;1.20;0.40;;;;;;;;;;5087879;28;20113;-59
2021/07/07 08:27:56;;;;;;;0.30;0.30;;;;;;;;;;5075753;28;20068;-59
2021/07/07 08:30:23;;;;;;;0.95;0.30;;;;;;;;;;5073007;28;20044;-59
2021/07/07 08:32:50;;;;;;;0.30;0.30;;;;;;;;;;5088530;28;20143;-59
2021/07/07 08:35:18;;;;;;;0.70;0.30;;;;;;;;;;5091439;28;20503;-59
2021/07/07 08:37:45;;;;;;;0.30;0.30;;;;;;;;;;5085106;28;20496;-59
2021/07/07 08:40:13;;;;;;;0.30;0.30;;;;;;;;;;5085412;28;20379;-59
2021/07/07 08:42:42;;;;;;;0.38;0.38;;;;;;;;;;5090523;28;20103;-59
2021/07/07 08:45:10;;;;;;;5.53;0.30;;;;;;;;;;5088331;28;20054;-59
2021/07/07 08:47:40;;;;;;;0.35;0.32;;;;;;;;;;5090378;28;20040;-59
2021/07/07 08:50:11;;;;;;;3.33;0.32;;;;;;;;;;5086395;28;20036;-59
2021/07/07 08:52:39;;;;;;;0.30;0.30;;;;;;;;;;5090281;28;20044;-59
2021/07/07 08:55:07;;;;;;;2.33;0.30;;;;;;;;;;5083523;28;20561;-59
2021/07/07 08:57:42;;;;;;;0.28;0.28;;;;;;;;;;5076037;28;20119;-58
2021/07/07 09:00:31;;;;;;;1.85;0.30;;;;;;;;;;5088928;28;20135;-59
2021/07/07 09:03:01;;;;;;;2.75;0.30;;;;;;;;;;5092160;28;20068;-59
2021/07/07 09:05:29;;;;;;;0.30;0.30;;;;;;;;;;5091138;28;20028;-58
2021/07/07 09:08:05;;;;;;;0.30;0.30;;;;;;;;;;5092822;28;20052;-59
2021/07/07 09:10:32;;;;;;;0.30;0.30;;;;;;;;;;5093020;28;20397;-59
2021/07/07 09:13:09;;;;;;;1.27;0.30;;;;;;;;;;5092412;28;20518;-58
2021/07/07 09:15:36;;;;;;;0.50;0.45;;;;;;;;;;5092996;28;20040;-59
2021/07/07 09:18:02;;;;;;;0.55;0.20;;;;;;;;;;5092348;28;20031;-59
2021/07/07 09:20:36;;;;;;;0.20;0.20;;;;;;;;;;5092494;28;20047;-58
2021/07/07 09:23:17;;;;;;;2.53;0.30;;;;;;;;;;5090184;28;20032;-58
2021/07/07 09:25:48;;;;;;;0.20;0.20;;;;;;;;;;5088385;28;20059;-58
2021/07/07 09:28:16;;;;;;;1.63;0.30;;;;;;;;;;5082405;28;20043;-59
2021/07/07 09:30:42;;;;;;;0.30;0.30;;;;;;;;;;5085994;28;20083;-59
2021/07/07 09:33:10;;;;;;;0.30;0.30;;;;;;;;;;5092153;28;20036;-58
2021/07/07 09:35:37;;;;;;;0.50;0.20;;;;;;;;;;5075101;28;20091;-59
2021/07/07 09:38:05;;;;;;;0.20;0.20;;;;;;;;;;5092332;28;20028;-58
2021/07/07 09:40:34;;;;;;;0.80;0.20;;;;;;;;;;5087250;28;20028;-59
2021/07/07 09:43:02;;;;;;;0.30;0.30;;;;;;;;;;5089506;28;20117;-58
2021/07/07 09:45:29;;;;;;;1.45;0.25;;;;;;;;;;5090917;28;20067;-58
2021/07/07 09:47:58;;;;;;;0.30;0.30;;;;;;;;;;5092718;28;20500;-59
2021/07/07 09:50:25;;;;;;;0.20;0.20;;;;;;;;;;5089656;28;20093;-58
2021/07/07 09:52:52;;;;;;;0.30;0.30;;;;;;;;;;5093680;28;20040;-58
2021/07/07 09:55:19;;;;;;;0.20;0.20;;;;;;;;;;5092813;28;20044;-59
2021/07/07 09:57:47;;;;;;;0.88;0.30;;;;;;;;;;5090697;28;20507;-58
2021/07/07 10:00:13;;;;;;;0.20;0.20;;;;;;;;;;5082179;28;20110;-59
2021/07/07 10:02:41;;;;;;;0.20;0.20;;;;;;;;;;5083585;28;20036;-58
2021/07/07 10:05:09;;;;;;;1.05;0.20;;;;;;;;;;5091904;28;20514;-59
2021/07/07 10:07:36;;;;;;;0.20;0.20;;;;;;;;;;5091696;28;20044;-58
2021/07/07 10:10:03;;;;;;;1.15;0.20;;;;;;;;;;5091018;28;20036;-58
2021/07/07 10:12:30;;;;;;;0.20;0.20;;;;;;;;;;5085995;28;20036;-58
2021/07/07 10:14:57;;;;;;;0.90;0.20;;;;;;;;;;5084645;28;20098;-59
2021/07/07 10:17:23;;;;;;;0.20;0.20;;;;;;;;;;5092533;28;20410;-58
2021/07/07 10:19:50;;;;;;;1.60;0.20;;;;;;;;;;5083927;28;20036;-59
2021/07/07 10:22:17;;;;;;;1.10;0.20;;;;;;;;;;5085317;28;20036;-58
2021/07/07 10:24:44;;;;;;;2.38;0.30;;;;;;;;;;5080970;28;20427;-59
2021/07/07 10:27:10;;;;;;;2.17;0.20;;;;;;;;;;5085669;28;20711;-58
2021/07/07 10:29:37;;;;;;;0.22;0.22;;;;;;;;;;5088594;28;20094;-58
2021/07/07 10:32:07;;;;;;;1.55;0.20;;;;;;;;;;5086612;28;20044;-58
2021/07/07 10:34:36;;;;;;;2.42;0.20;;;;;;;;;;5088042;28;22279;-59
2021/07/07 10:37:02;;;;;;;0.38;0.30;;;;;;;;;;5087927;28;20071;-59
2021/07/07 10:39:30;;;;;;;0.20;0.20;;;;;;;;;;5089748;28;20032;-58
2021/07/07 10:42:02;;;;;;;0.20;0.20;;;;;;;;;;5089117;28;20396;-58
2021/07/07 10:44:35;;;;;;;0.22;0.20;;;;;;;;;;5084294;28;20106;-58
2021/07/07 10:47:10;;;;;;;0.68;0.30;;;;;;;;;;5079122;28;20061;-58
2021/07/07 10:49:41;;;;;;;5.38;0.20;;;;;;;;;;5062993;28;20357;-58
2021/07/07 10:52:08;;;;;;;0.28;0.20;;;;;;;;;;5085142;28;20044;-59
2021/07/07 10:54:36;;;;;;;1.30;0.20;;;;;;;;;;5083922;28;20048;-58
2021/07/07 10:57:07;;;;;;;1.10;0.20;;;;;;;;;;5095170;28;20428;-58
2021/07/07 10:59:38;;;;;;;0.20;0.20;;;;;;;;;;5098570;28;20783;-58
2021/07/07 11:02:07;;;;;;;0.30;0.30;;;;;;;;;;5089972;28;20082;-58
2021/07/07 11:04:38;;;;;;;0.22;0.22;;;;;;;;;;5069023;28;20067;-59
2021/07/07 11:07:23;;;;;;;0.30;0.20;;;;;;;;;;5079262;28;20063;-58
2021/07/07 11:09:53;;;;;;;0.30;0.30;;;;;;;;;;5097072;28;20093;-58
2021/07/07 11:12:25;;;;;;;0.30;0.30;;;;;;;;;;5091883;28;20048;-58
2021/07/07 11:15:18;;;;;;;2.03;0.20;;;;;;;;;;5104040;28;20036;-58
2021/07/07 11:17:47;;;;;;;0.50;0.30;;;;;;;;;;5074272;28;20044;-58
2021/07/07 11:20:15;;;;;;;1.08;0.28;;;;;;;;;;5086097;28;20032;-58
2021/07/07 11:22:44;;;;;;;0.40;0.20;;;;;;;;;;5082692;28;20604;-58
2021/07/07 11:25:12;;;;;;;0.28;0.28;;;;;;;;;;5090819;28;20353;-58
2021/07/07 11:27:40;;;;;;;2.92;0.22;;;;;;;;;;5091397;28;20040;-58
2021/07/07 11:30:16;;;;;;;0.20;0.20;;;;;;;;;;5075405;28;20139;-58
2021/07/07 11:32:43;;;;;;;2.10;0.20;;;;;;;;;;5082302;28;20518;-58
2021/07/07 11:35:13;;;;;;;3.83;0.20;;;;;;;;;;5082124;28;20078;-58
2021/07/07 11:37:40;;;;;;;0.22;0.22;;;;;;;;;;5085850;28;20047;-55
2021/07/07 11:40:14;;;;;;;1.05;0.20;;;;;;;;;;5088846;28;20075;-54
2021/07/07 11:43:00;;;;;;;2.53;0.25;;;;;;;;;;5087662;28;20040;-56
2021/07/07 11:45:29;;;;;;;1.52;0.30;;;;;;;;;;5091460;28;20055;-55
2021/07/07 11:48:01;;;;;;;0.88;0.20;;;;;;;;;;5095214;28;20097;-55
2021/07/07 11:50:28;;;;;;;0.20;0.20;;;;;;;;;;5091878;28;20446;-55
2021/07/07 11:52:56;;;;;;;0.30;0.30;;;;;;;;;;5084705;28;20039;-55
2021/07/07 11:55:41;;;;;;;1.27;0.20;;;;;;;;;;5083104;28;20078;-55
2021/07/07 11:58:09;;;;;;;0.30;0.20;;;;;;;;;;5085967;28;20036;-55
2021/07/07 12:00:39;;;;;;;0.28;0.20;;;;;;;;;;5088289;28;20067;-55
2021/07/07 12:03:06;;;;;;;0.80;0.20;;;;;;;;;;5087708;28;20060;-55
2021/07/07 12:05:54;;;;;;;0.50;0.20;;;;;;;;;;5084552;28;20098;-56
2021/07/07 12:08:22;;;;;;;1.85;0.20;;;;;;;;;;5091948;28;20052;-55
2021/07/07 12:10:50;;;;;;;0.65;0.30;;;;;;;;;;5089131;28;20122;-56
2021/07/07 12:13:23;;;;;;;0.20;0.20;;;;;;;;;;5096503;28;20036;-56
2021/07/07 12:15:50;;;;;;;0.28;0.20;;;;;;;;;;5085597;28;20040;-55
2021/07/07 12:18:27;;;;;;;0.20;0.20;;;;;;;;;;5087732;28;20377;-56
2021/07/07 12:20:56;;;;;;;0.93;0.20;;;;;;;;;;5086410;28;20757;-56
2021/07/07 12:23:23;;;;;;;0.40;0.30;;;;;;;;;;5100304;28;20085;-56
2021/07/07 12:26:00;;;;;;;0.20;0.20;;;;;;;;;;5089065;28;20212;-56
2021/07/07 12:28:28;;;;;;;1.35;0.30;;;;;;;;;;5086755;28;20043;-56
2021/07/07 12:30:55;;;;;;;0.20;0.20;;;;;;;;;;5095830;28;20078;-56
2021/07/07 12:33:22;;;;;;;0.88;0.28;;;;;;;;;;5095277;28;20044;-55
2021/07/07 12:35:49;;;;;;;0.32;0.20;;;;;;;;;;5086814;28;20716;-56
2021/07/07 12:38:15;;;;;;;0.38;0.25;;;;;;;;;;5087190;28;20094;-56
2021/07/07 12:40:50;;;;;;;0.20;0.20;;;;;;;;;;5098410;28;20068;-56
2021/07/07 12:43:26;;;;;;;0.20;0.20;;;;;;;;;;5090017;28;20036;-53
2021/07/07 12:46:03;;;;;;;0.20;0.20;;;;;;;;;;5089186;28;20077;-47
2021/07/07 12:48:29;;;;;;;0.43;0.22;;;;;;;;;;5092570;28;20032;-46
2021/07/07 12:50:57;;;;;;;0.63;0.20;;;;;;;;;;5084889;28;20044;-44
2021/07/07 12:53:34;;;;;;;0.30;0.30;;;;;;;;;;5092344;28;20123;-44
2021/07/07 12:56:07;;;;;;;1.20;0.30;;;;;;;;;;5090502;28;20800;-43
2021/07/07 12:58:34;;;;;;;0.30;0.30;;;;;;;;;;5084810;28;20072;-45
2021/07/07 13:01:00;;;;;;;1.13;0.30;;;;;;;;;;5088303;28;20048;-44
2021/07/07 13:03:37;;;;;;;0.30;0.30;;;;;;;;;;5096243;28;20032;-45
2021/07/07 13:06:17;;;;;;;0.30;0.30;;;;;;;;;;5092985;28;20045;-44
2021/07/07 13:08:48;;;;;;;0.85;0.63;;;;;;;;;;5087348;28;20093;-43
2021/07/07 13:11:18;;;;;;;0.30;0.30;;;;;;;;;;5089931;28;20114;-43
2021/07/07 13:13:45;;;;;;;0.35;0.30;;;;;;;;;;5079526;28;20048;-46
2021/07/07 13:16:22;;;;;;;2.92;0.30;;;;;;;;;;5091807;28;20075;-46
2021/07/07 13:18:57;;;;;;;1.48;0.30;;;;;;;;;;5086415;28;20059;-46
2021/07/07 13:21:50;;;;;;;0.30;0.30;;;;;;;;;;5091954;28;20048;-44
2021/07/07 13:24:23;;;;;;;1.17;0.20;;;;;;;;;;5083398;28;20052;-46
2021/07/07 13:26:52;;;;;;;0.20;0.20;;;;;;;;;;5092154;28;20032;-47
2021/07/07 13:29:21;;;;;;;0.80;0.40;;;;;;;;;;5092574;28;20089;-47
2021/07/07 13:32:07;;;;;;;0.30;0.30;;;;;;;;;;5098346;28;20067;-50
2021/07/07 13:34:50;;;;;;;2.33;0.30;;;;;;;;;;5091555;28;20044;-47
2021/07/07 13:37:16;;;;;;;0.22;0.22;;;;;;;;;;5072841;28;20127;-46
2021/07/07 13:39:44;;;;;;;0.25;0.25;;;;;;;;;;5089546;28;20090;-46
2021/07/07 13:42:11;;;;;;;0.45;0.28;;;;;;;;;;5091695;28;20094;-49
2021/07/07 13:44:38;;;;;;;0.20;0.20;;;;;;;;;;5087480;28;20384;-49
2021/07/07 13:47:05;;;;;;;0.43;0.20;;;;;;;;;;5093220;28;20483;-46
2021/07/07 13:49:32;;;;;;;1.20;0.20;;;;;;;;;;5091213;28;20119;-46
2021/07/07 13:51:58;;;;;;;0.28;0.28;;;;;;;;;;5091970;28;20090;-44
2021/07/07 13:54:25;;;;;;;0.73;0.57;;;;;;;;;;5088087;28;20040;-47
2021/07/07 13:56:52;;;;;;;0.20;0.20;;;;;;;;;;5091093;28;20105;-46
2021/07/07 13:59:19;;;;;;;1.80;0.35;;;;;;;;;;5084249;28;20101;-45
2021/07/07 14:01:45;;;;;;;0.40;0.30;;;;;;;;;;5090912;28;20047;-47
2021/07/07 14:04:12;;;;;;;0.63;0.25;;;;;;;;;;5088818;28;20137;-46
2021/07/07 14:06:39;;;;;;;0.20;0.20;;;;;;;;;;5090779;28;20080;-47
2021/07/07 14:09:06;;;;;;;2.35;0.30;;;;;;;;;;5090539;28;20062;-47
2021/07/07 14:11:34;;;;;;;0.65;0.22;;;;;;;;;;5079814;28;20115;-46
2021/07/07 14:14:01;;;;;;;0.20;0.20;;;;;;;;;;5093326;28;20036;-48
2021/07/07 14:16:28;;;;;;;1.50;0.30;;;;;;;;;;5088895;28;20036;-48
2021/07/07 14:18:55;;;;;;;0.80;0.25;;;;;;;;;;5088003;28;20044;-47
2021/07/07 14:21:21;;;;;;;0.30;0.20;;;;;;;;;;5088751;28;20052;-47
2021/07/07 14:23:48;;;;;;;1.65;0.30;;;;;;;;;;5091359;28;20048;-46
2021/07/07 14:26:16;;;;;;;0.40;0.40;;;;;;;;;;5087654;28;20586;-48
2021/07/07 14:28:43;;;;;;;0.98;0.43;;;;;;;;;;5090725;28;20032;-48
2021/07/07 14:31:10;;;;;;;0.20;0.20;;;;;;;;;;5084112;28;20032;-46
2021/07/07 14:33:37;;;;;;;4.72;0.30;;;;;;;;;;5090936;28;20044;-47
2021/07/07 14:36:04;;;;;;;2.25;0.30;;;;;;;;;;5068199;28;20377;-48
2021/07/07 14:38:30;;;;;;;1.58;0.20;;;;;;;;;;5074220;28;20037;-46
2021/07/07 14:40:57;;;;;;;6.32;0.20;;;;;;;;;;5071309;28;20040;-44
2021/07/07 14:43:24;;;;;;;2.08;0.20;;;;;;;;;;5068731;28;20130;-48
2021/07/07 14:45:51;;;;;;;0.50;0.30;;;;;;;;;;5069027;28;20037;-46
2021/07/07 14:48:21;;;;;;;0.30;0.30;;;;;;;;;;5070803;28;20035;-45